Time;durP1;ratioP1;P1;durP2;ratioP2;P2;SDS_P1;SDS_P2;PMS_P1;PMS_P2;Temp;Humidity;BMP_temperature;BMP_pressure;BME280_temperature;BME280_humidity;BME280_pressure;Samples;Min_cycle;Max_cycle;Signal;HPM_P1;HPM_P2
2022/03/05 00:01:58;;;;;;;2.00;1.55;;;-2.80;99.90;;;;;;5045129;28;20037;-65
2022/03/05 00:04:24;;;;;;;5.05;2.88;;;-2.80;99.90;;;;;;5041044;28;20578;-65
2022/03/05 00:06:49;;;;;;;5.82;3.35;;;-2.80;99.90;;;;;;5035465;28;20576;-65
2022/03/05 00:09:19;;;;;;;9.25;4.20;;;-2.80;99.90;;;;;;5043793;28;20500;-65
2022/03/05 00:11:44;;;;;;;8.07;4.50;;;-2.90;99.90;;;;;;5043394;28;20532;-65
2022/03/05 00:14:10;;;;;;;9.73;3.63;;;-2.90;99.90;;;;;;5039024;28;20128;-65
2022/03/05 00:16:36;;;;;;;4.13;2.42;;;-2.90;99.90;;;;;;5038992;28;20037;-65
2022/03/05 00:19:02;;;;;;;9.55;3.92;;;-2.80;99.90;;;;;;5051707;28;20083;-65
2022/03/05 00:21:28;;;;;;;9.20;2.85;;;-3.00;99.90;;;;;;5046539;28;20553;-65
2022/03/05 00:23:53;;;;;;;6.55;2.25;;;-3.10;99.90;;;;;;5046033;28;20120;-65
2022/03/05 00:26:19;;;;;;;5.18;2.65;;;-3.00;99.90;;;;;;5048404;28;20021;-65
2022/03/05 00:28:45;;;;;;;7.20;3.92;;;-3.00;99.90;;;;;;5046464;28;20055;-65
2022/03/05 00:31:10;;;;;;;8.82;4.50;;;-2.80;99.90;;;;;;5047691;28;20029;-65
2022/03/05 00:33:36;;;;;;;12.48;3.60;;;-2.90;99.90;;;;;;5038245;28;20064;-65
2022/03/05 00:36:03;;;;;;;16.05;4.55;;;-2.80;99.90;;;;;;5041912;28;20051;-65
2022/03/05 00:38:29;;;;;;;14.95;5.88;;;-3.00;99.90;;;;;;5042656;28;20076;-66
2022/03/05 00:40:55;;;;;;;9.73;4.53;;;-3.00;99.90;;;;;;5047355;28;20021;-65
2022/03/05 00:43:20;;;;;;;9.57;3.28;;;-2.90;99.90;;;;;;5045397;28;20033;-65
2022/03/05 00:45:46;;;;;;;8.00;3.85;;;-2.80;99.90;;;;;;5047115;28;20021;-65
2022/03/05 00:48:12;;;;;;;4.32;2.40;;;-2.90;99.90;;;;;;5048794;28;20435;-65
2022/03/05 00:50:39;;;;;;;9.38;3.72;;;-3.00;99.90;;;;;;5043338;28;20048;-65
2022/03/05 00:53:05;;;;;;;9.50;3.88;;;-2.90;99.90;;;;;;5041206;28;20029;-65
2022/03/05 00:55:31;;;;;;;7.82;3.22;;;-2.90;99.90;;;;;;5041987;28;20090;-65
2022/03/05 00:57:56;;;;;;;10.60;2.95;;;-3.00;99.90;;;;;;5043229;28;20563;-65
2022/03/05 01:00:22;;;;;;;11.18;3.90;;;-3.00;99.90;;;;;;5046357;28;20037;-65
2022/03/05 01:02:48;;;;;;;8.07;3.50;;;-3.00;99.90;;;;;;5043418;28;20032;-65
2022/03/05 01:05:13;;;;;;;6.40;3.40;;;-3.10;99.90;;;;;;5040352;28;20064;-66
2022/03/05 01:07:39;;;;;;;3.85;2.63;;;-3.00;99.90;;;;;;5043844;28;20017;-65
2022/03/05 01:10:06;;;;;;;13.60;4.00;;;-3.00;99.90;;;;;;5041353;28;20041;-65
2022/03/05 01:12:31;;;;;;;8.05;3.22;;;-3.20;99.90;;;;;;5043390;28;20401;-65
2022/03/05 01:14:57;;;;;;;6.55;3.17;;;-3.20;99.90;;;;;;5047801;28;20040;-65
2022/03/05 01:17:23;;;;;;;13.45;4.45;;;-3.20;99.90;;;;;;5046498;28;20532;-65
2022/03/05 01:19:48;;;;;;;16.42;4.28;;;-3.20;99.90;;;;;;5049060;28;20033;-66
2022/03/05 01:22:14;;;;;;;8.65;3.63;;;-3.30;99.90;;;;;;5041898;28;20120;-65
2022/03/05 01:24:40;;;;;;;5.55;2.42;;;-3.30;99.90;;;;;;5045477;28;20033;-65
2022/03/05 01:27:06;;;;;;;6.05;2.65;;;-3.40;99.90;;;;;;5045120;28;20121;-65
2022/03/05 01:29:32;;;;;;;2.90;1.88;;;-3.50;99.90;;;;;;5050257;28;20553;-65
2022/03/05 01:31:57;;;;;;;2.35;1.33;;;-3.30;99.90;;;;;;5041843;28;20053;-65
2022/03/05 01:34:23;;;;;;;8.13;2.80;;;-3.40;99.90;;;;;;5044605;28;20079;-65
2022/03/05 01:36:49;;;;;;;7.18;4.10;;;-3.50;99.90;;;;;;5039647;28;20037;-65
2022/03/05 01:39:16;;;;;;;5.82;2.90;;;-3.50;99.90;;;;;;5046764;28;20156;-66
2022/03/05 01:41:44;;;;;;;6.95;2.30;;;-3.50;99.90;;;;;;5043304;28;20032;-66
2022/03/05 01:44:10;;;;;;;7.82;4.93;;;-3.50;99.90;;;;;;5044183;28;20374;-65
2022/03/05 01:46:38;;;;;;;11.30;4.05;;;-3.60;99.90;;;;;;5044010;28;20029;-66
2022/03/05 01:49:09;;;;;;;4.05;2.60;;;-3.50;99.90;;;;;;5042065;28;20399;-65
2022/03/05 01:51:35;;;;;;;16.50;3.90;;;-3.60;99.90;;;;;;5043253;28;20041;-65
2022/03/05 01:54:01;;;;;;;3.80;1.58;;;-3.60;99.90;;;;;;5041989;28;20029;-65
2022/03/05 01:56:28;;;;;;;4.30;1.95;;;-3.70;99.90;;;;;;5043624;28;20477;-65
2022/03/05 01:58:54;;;;;;;3.65;2.40;;;-3.60;99.90;;;;;;5043168;28;20033;-66
2022/03/05 02:01:23;;;;;;;7.88;3.25;;;-3.60;99.90;;;;;;5043891;28;20029;-65
2022/03/05 02:03:49;;;;;;;10.95;2.75;;;-3.60;99.90;;;;;;5043713;28;20132;-65
2022/03/05 02:06:15;;;;;;;3.35;2.25;;;-3.50;99.90;;;;;;5045547;28;20017;-65
2022/03/05 02:08:41;;;;;;;3.63;2.42;;;-3.40;99.90;;;;;;5040915;28;20021;-65
2022/03/05 02:11:06;;;;;;;12.02;2.38;;;-3.50;99.90;;;;;;5044482;28;20044;-65
2022/03/05 02:13:32;;;;;;;4.30;1.88;;;-3.60;99.90;;;;;;5043140;28;20107;-65
2022/03/05 02:15:59;;;;;;;12.80;3.65;;;-3.50;99.90;;;;;;5039917;28;20039;-65
2022/03/05 02:18:24;;;;;;;9.25;3.38;;;-3.20;99.90;;;;;;5047261;28;20029;-65
2022/03/05 02:20:51;;;;;;;12.43;3.70;;;-3.20;99.90;;;;;;5042900;28;20040;-66
2022/03/05 02:23:17;;;;;;;7.80;3.08;;;-3.00;99.90;;;;;;5041228;28;20021;-65
2022/03/05 02:25:57;;;;;;;4.75;2.80;;;-2.90;99.90;;;;;;5044451;28;20582;-65
2022/03/05 02:28:24;;;;;;;9.90;2.75;;;-2.90;99.90;;;;;;5036366;28;20021;-65
2022/03/05 02:30:50;;;;;;;5.28;2.60;;;-3.00;99.90;;;;;;5042129;28;20525;-65
2022/03/05 02:33:16;;;;;;;6.30;3.53;;;-3.10;99.90;;;;;;5046175;28;20029;-65
2022/03/05 02:35:46;;;;;;;4.10;2.45;;;-3.10;99.90;;;;;;5051397;28;20029;-66
2022/03/05 02:38:13;;;;;;;6.95;2.95;;;-3.20;99.90;;;;;;5036139;28;20037;-66
2022/03/05 02:40:39;;;;;;;11.18;2.40;;;-3.30;99.90;;;;;;5049196;28;20032;-66
2022/03/05 02:43:05;;;;;;;9.63;4.10;;;-3.30;99.90;;;;;;5048840;28;20021;-66
2022/03/05 02:45:31;;;;;;;13.63;3.80;;;-3.40;99.90;;;;;;5038999;28;20090;-66
2022/03/05 02:47:57;;;;;;;13.48;4.45;;;-3.50;99.90;;;;;;5042249;28;20033;-66
2022/03/05 02:50:23;;;;;;;4.65;2.33;;;-3.50;99.90;;;;;;5043885;28;20029;-65
2022/03/05 02:52:49;;;;;;;19.65;3.38;;;-3.60;99.90;;;;;;5042150;28;20118;-65
2022/03/05 02:55:15;;;;;;;6.50;2.25;;;-3.70;99.90;;;;;;5045497;28;20142;-65
2022/03/05 02:57:40;;;;;;;4.45;2.33;;;-3.80;99.90;;;;;;5039193;28;20033;-66
2022/03/05 03:00:06;;;;;;;6.32;2.05;;;-3.70;99.90;;;;;;5042692;28;20397;-66
2022/03/05 03:02:32;;;;;;;11.90;3.70;;;-3.70;99.90;;;;;;5046856;28;20036;-66
2022/03/05 03:04:58;;;;;;;2.10;1.40;;;-3.70;99.90;;;;;;5040348;28;20469;-66
2022/03/05 03:07:23;;;;;;;6.70;2.13;;;-3.70;99.90;;;;;;5041665;28;20022;-65
2022/03/05 03:09:49;;;;;;;4.05;2.17;;;-3.70;99.90;;;;;;5042355;28;20033;-65
2022/03/05 03:12:14;;;;;;;7.20;2.92;;;-3.70;99.90;;;;;;5041179;28;20489;-65
2022/03/05 03:14:40;;;;;;;19.63;2.72;;;-3.70;99.90;;;;;;5040411;28;20029;-65
2022/03/05 03:17:05;;;;;;;6.60;2.60;;;-3.80;99.90;;;;;;5042683;28;20040;-66
2022/03/05 03:19:31;;;;;;;5.38;2.75;;;-3.70;99.90;;;;;;5043982;28;20025;-65
2022/03/05 03:21:57;;;;;;;7.32;3.30;;;-3.60;99.90;;;;;;5044766;28;20477;-66
2022/03/05 03:24:22;;;;;;;6.60;2.88;;;-3.80;99.90;;;;;;5041052;28;20029;-66
2022/03/05 03:26:48;;;;;;;11.30;2.45;;;-3.80;99.90;;;;;;5040039;28;20023;-66
2022/03/05 03:29:13;;;;;;;10.75;2.95;;;-3.90;99.90;;;;;;5038426;28;20037;-66
2022/03/05 03:31:39;;;;;;;8.75;2.70;;;-3.90;99.90;;;;;;5044568;28;20103;-66
2022/03/05 03:34:05;;;;;;;4.25;2.40;;;-3.90;99.90;;;;;;5045078;28;20069;-66
2022/03/05 03:36:30;;;;;;;22.77;4.25;;;-3.90;99.90;;;;;;5049344;28;20102;-65
2022/03/05 03:38:56;;;;;;;18.73;4.43;;;-3.90;99.90;;;;;;5035513;28;20400;-66
2022/03/05 03:41:22;;;;;;;14.30;2.88;;;-3.80;99.90;;;;;;5038169;28;20036;-66
2022/03/05 03:43:48;;;;;;;4.75;2.40;;;-3.80;99.90;;;;;;5035433;28;20530;-66
2022/03/05 03:46:13;;;;;;;6.15;3.15;;;-3.80;99.90;;;;;;5033650;28;20466;-66
2022/03/05 03:48:39;;;;;;;5.57;3.22;;;-3.80;99.90;;;;;;5035248;28;20029;-65
2022/03/05 03:51:05;;;;;;;6.18;4.03;;;-3.70;99.90;;;;;;5037445;28;20613;-65
2022/03/05 03:53:31;;;;;;;7.30;2.28;;;-3.80;99.90;;;;;;5040928;28;20060;-65
2022/03/05 03:55:56;;;;;;;6.82;1.73;;;-3.80;99.90;;;;;;5044557;28;20129;-65
2022/03/05 03:58:22;;;;;;;4.20;2.35;;;-3.80;99.90;;;;;;5041021;28;20028;-65
2022/03/05 04:00:48;;;;;;;5.35;2.30;;;-3.70;99.90;;;;;;5043843;28;20040;-65
2022/03/05 04:03:13;;;;;;;3.65;2.28;;;-3.70;99.90;;;;;;5039327;28;20035;-65
2022/03/05 04:05:39;;;;;;;4.63;3.55;;;-3.60;99.90;;;;;;5048959;28;20108;-65
2022/03/05 04:10:49;;;;;;;7.38;2.42;;;-3.60;99.90;;;;;;5042583;28;20117;-65
2022/03/05 04:13:15;;;;;;;4.25;2.03;;;-3.60;99.90;;;;;;5041767;28;20104;-65
2022/03/05 04:15:41;;;;;;;2.63;1.98;;;-3.50;99.90;;;;;;5043631;28;20033;-65
2022/03/05 04:18:06;;;;;;;7.55;3.15;;;-3.50;99.90;;;;;;5046757;28;20643;-65
2022/03/05 04:20:33;;;;;;;7.45;3.38;;;-3.50;99.90;;;;;;5045070;28;20120;-66
2022/03/05 04:22:59;;;;;;;9.88;3.03;;;-3.60;99.90;;;;;;5048757;28;20425;-65
2022/03/05 04:25:26;;;;;;;6.53;3.85;;;-3.30;99.90;;;;;;5045533;28;20029;-65
2022/03/05 04:27:51;;;;;;;4.72;2.50;;;-3.60;99.90;;;;;;5050832;28;20032;-66
2022/03/05 04:30:18;;;;;;;12.48;2.50;;;-3.60;99.90;;;;;;5045652;28;20361;-66
2022/03/05 04:32:44;;;;;;;12.48;3.80;;;-3.60;99.90;;;;;;5048679;28;20033;-66
2022/03/05 04:35:10;;;;;;;5.63;2.83;;;-3.60;99.90;;;;;;5048382;28;20039;-66
2022/03/05 04:37:36;;;;;;;7.63;3.30;;;-3.70;99.90;;;;;;5041925;28;20388;-66
2022/03/05 04:40:02;;;;;;;3.60;1.67;;;-3.80;99.90;;;;;;5047841;28;20062;-65
2022/03/05 04:42:28;;;;;;;5.28;1.83;;;-3.70;99.90;;;;;;5051200;28;20029;-65
2022/03/05 04:44:53;;;;;;;10.20;3.75;;;-3.70;99.90;;;;;;5045114;28;20527;-65
2022/03/05 04:47:19;;;;;;;3.90;1.33;;;-3.70;99.90;;;;;;5046917;28;20200;-66
2022/03/05 04:49:45;;;;;;;4.07;1.90;;;-3.80;99.90;;;;;;5040056;28;20064;-66
2022/03/05 04:52:10;;;;;;;2.83;1.85;;;-3.80;99.90;;;;;;5050815;28;20413;-66
2022/03/05 04:54:36;;;;;;;8.85;3.45;;;-3.90;99.90;;;;;;5042406;28;20440;-66
2022/03/05 04:57:03;;;;;;;5.07;3.13;;;-4.10;99.90;;;;;;5041941;28;20522;-66
2022/03/05 04:59:29;;;;;;;5.22;3.13;;;-4.10;99.90;;;;;;5050363;28;20032;-66
2022/03/05 05:01:56;;;;;;;14.93;3.42;;;-4.10;99.90;;;;;;5045271;28;20025;-66
2022/03/05 05:04:22;;;;;;;11.18;2.88;;;-4.10;99.90;;;;;;5044476;28;20052;-66
2022/03/05 05:06:48;;;;;;;6.22;2.42;;;-4.10;99.90;;;;;;5044221;28;20107;-66
2022/03/05 05:09:13;;;;;;;2.22;1.63;;;-4.10;99.90;;;;;;5046235;28;20044;-66
2022/03/05 05:11:39;;;;;;;2.75;1.92;;;-4.10;99.90;;;;;;5043847;28;20521;-66
2022/03/05 05:14:05;;;;;;;4.82;3.13;;;-4.00;99.90;;;;;;5044049;28;20033;-66
2022/03/05 05:16:30;;;;;;;8.02;2.78;;;-4.00;99.90;;;;;;5047104;28;20044;-65
2022/03/05 05:21:40;;;;;;;5.60;1.98;;;-4.10;99.90;;;;;;5045075;28;20031;-65
2022/03/05 05:24:06;;;;;;;4.80;2.90;;;-4.10;99.90;;;;;;5049688;28;20036;-65
2022/03/05 05:26:31;;;;;;;14.90;3.53;;;-4.20;99.90;;;;;;5051595;28;20056;-65
2022/03/05 05:28:57;;;;;;;5.78;1.65;;;-4.20;99.90;;;;;;5040802;28;20045;-66
2022/03/05 05:31:23;;;;;;;6.35;3.20;;;-4.20;99.90;;;;;;5039601;28;20060;-66
2022/03/05 05:33:51;;;;;;;8.07;2.38;;;-4.10;99.90;;;;;;5043511;28;20083;-66
2022/03/05 05:36:17;;;;;;;9.18;2.38;;;-4.20;99.90;;;;;;5046480;28;20037;-66
2022/03/05 05:38:44;;;;;;;8.65;2.75;;;-4.20;99.90;;;;;;5047023;28;20044;-66
2022/03/05 05:41:09;;;;;;;5.95;1.52;;;-4.10;99.90;;;;;;5039604;28;20116;-65
2022/03/05 05:43:36;;;;;;;11.50;3.50;;;-4.10;99.90;;;;;;5041993;28;20041;-65
2022/03/05 05:46:01;;;;;;;2.03;1.63;;;-4.20;99.90;;;;;;5040457;28;20045;-65
2022/03/05 05:48:27;;;;;;;5.38;3.45;;;-4.20;99.90;;;;;;5039639;28;20107;-65
2022/03/05 05:50:52;;;;;;;4.15;2.90;;;-4.20;99.90;;;;;;5040941;28;20079;-65
2022/03/05 05:53:18;;;;;;;7.07;3.00;;;-4.30;99.90;;;;;;5043082;28;20715;-65
2022/03/05 05:55:44;;;;;;;9.63;2.85;;;-4.20;99.90;;;;;;5043549;28;20043;-66
2022/03/05 05:58:09;;;;;;;13.43;2.70;;;-4.20;99.90;;;;;;5038640;28;20039;-66
2022/03/05 06:00:35;;;;;;;5.32;2.83;;;-4.10;99.90;;;;;;5044279;28;20485;-66
2022/03/05 06:03:00;;;;;;;16.23;4.82;;;-3.90;99.90;;;;;;5046236;28;20040;-66
2022/03/05 06:05:26;;;;;;;11.05;5.07;;;-3.90;99.90;;;;;;5041518;28;20030;-66
2022/03/05 06:07:52;;;;;;;16.80;4.20;;;-3.90;99.90;;;;;;5043377;28;20034;-66
2022/03/05 06:10:17;;;;;;;9.40;5.20;;;-3.70;99.90;;;;;;5041922;28;20121;-66
2022/03/05 06:12:44;;;;;;;15.15;4.90;;;-3.80;99.90;;;;;;5042175;28;20025;-66
2022/03/05 06:15:10;;;;;;;5.32;3.20;;;-3.70;99.90;;;;;;5039814;28;20020;-66
2022/03/05 06:17:40;;;;;;;5.82;3.58;;;-3.70;99.90;;;;;;5039533;28;20041;-66
2022/03/05 06:20:06;;;;;;;10.05;3.90;;;-3.80;99.90;;;;;;5036771;28;20152;-66
2022/03/05 06:22:32;;;;;;;15.90;6.90;;;-3.90;99.90;;;;;;5041793;28;20472;-66
2022/03/05 06:24:57;;;;;;;11.35;4.50;;;-3.90;99.90;;;;;;5036006;28;20017;-66
2022/03/05 06:27:23;;;;;;;18.52;3.97;;;-3.90;99.90;;;;;;5034451;28;20312;-66
2022/03/05 06:29:48;;;;;;;7.80;4.15;;;-3.90;99.90;;;;;;5039727;28;20111;-66
2022/03/05 06:32:17;;;;;;;8.00;2.90;;;-3.80;99.90;;;;;;5039432;28;20055;-66
2022/03/05 06:34:43;;;;;;;12.82;3.50;;;-3.80;99.90;;;;;;5039566;28;20036;-66
2022/03/05 06:37:08;;;;;;;8.27;4.10;;;-3.70;99.90;;;;;;5038060;28;20021;-66
2022/03/05 06:39:34;;;;;;;6.88;2.60;;;-3.70;99.90;;;;;;5042300;28;20065;-66
2022/03/05 06:42:00;;;;;;;3.53;2.13;;;-3.60;99.90;;;;;;5043291;28;20056;-66
2022/03/05 06:44:26;;;;;;;9.73;4.47;;;-3.60;99.90;;;;;;5040269;28;20143;-66
2022/03/05 06:46:51;;;;;;;10.63;2.20;;;-3.60;99.90;;;;;;5045152;28;20060;-66
2022/03/05 06:49:17;;;;;;;4.32;3.05;;;-3.50;99.90;;;;;;5042972;28;20126;-66
2022/03/05 06:51:43;;;;;;;5.82;3.35;;;-3.40;99.90;;;;;;5044203;28;20029;-66
2022/03/05 06:54:09;;;;;;;9.13;3.42;;;-3.40;99.90;;;;;;5041878;28;20083;-65
2022/03/05 06:56:35;;;;;;;6.22;3.28;;;-3.20;99.90;;;;;;5041636;28;20032;-67
2022/03/05 06:59:00;;;;;;;4.85;2.70;;;-3.10;99.90;;;;;;5040950;28;20036;-66
2022/03/05 07:01:26;;;;;;;5.78;3.00;;;-3.10;99.90;;;;;;5039969;28;20845;-66
2022/03/05 07:03:51;;;;;;;13.88;3.42;;;-3.00;99.90;;;;;;5044774;28;20036;-66
2022/03/05 07:06:17;;;;;;;7.10;3.75;;;-2.90;99.90;;;;;;5043376;28;20025;-66
2022/03/05 07:08:42;;;;;;;6.22;3.30;;;-2.70;99.90;;;;;;5039476;28;20052;-66
2022/03/05 07:11:08;;;;;;;6.22;3.67;;;-2.70;99.90;;;;;;5036810;28;20378;-66
2022/03/05 07:13:34;;;;;;;9.55;2.78;;;-2.60;99.90;;;;;;5041207;28;20039;-66
2022/03/05 07:16:00;;;;;;;7.88;3.55;;;-2.60;99.90;;;;;;5038943;28;20121;-66
2022/03/05 07:18:26;;;;;;;8.45;2.55;;;-2.50;99.90;;;;;;5031678;28;20037;-66
2022/03/05 07:20:51;;;;;;;7.00;3.40;;;-2.40;99.90;;;;;;5035832;28;20034;-66
2022/03/05 07:23:17;;;;;;;7.63;2.45;;;-2.20;99.90;;;;;;5042986;28;20032;-66
2022/03/05 07:25:43;;;;;;;8.52;2.88;;;-2.10;99.90;;;;;;5041504;28;20048;-66
2022/03/05 07:28:10;;;;;;;4.72;2.60;;;-1.90;99.90;;;;;;5041490;28;20029;-66
2022/03/05 07:30:37;;;;;;;11.55;3.47;;;-1.80;99.90;;;;;;5037164;28;20043;-66
2022/03/05 07:33:03;;;;;;;7.10;3.22;;;-1.60;99.90;;;;;;5046108;28;20017;-66
2022/03/05 07:35:29;;;;;;;22.35;4.32;;;-1.50;99.90;;;;;;5049796;28;20848;-66
2022/03/05 07:37:54;;;;;;;7.22;2.15;;;-1.50;99.90;;;;;;5043898;28;20116;-66
2022/03/05 07:40:20;;;;;;;9.18;3.53;;;-1.30;99.90;;;;;;5037175;28;20063;-66
2022/03/05 07:42:45;;;;;;;12.80;3.25;;;-1.20;99.90;;;;;;5038244;28;20121;-66
2022/03/05 07:45:11;;;;;;;20.77;3.70;;;-1.10;99.90;;;;;;5041551;28;20049;-66
2022/03/05 07:47:37;;;;;;;14.85;3.38;;;-0.90;99.90;;;;;;5047844;28;20393;-66
2022/03/05 07:50:04;;;;;;;13.00;3.75;;;-0.70;99.90;;;;;;5046842;28;20030;-66
2022/03/05 07:52:31;;;;;;;7.80;3.90;;;-0.70;99.90;;;;;;5041241;28;20060;-66
2022/03/05 07:54:57;;;;;;;11.32;3.22;;;-0.60;99.90;;;;;;5043602;28;20033;-66
2022/03/05 07:57:23;;;;;;;7.97;3.03;;;-0.40;99.90;;;;;;5043370;28;20037;-66
2022/03/05 07:59:48;;;;;;;4.68;2.83;;;-0.20;99.90;;;;;;5047228;28;20030;-66
2022/03/05 08:02:15;;;;;;;9.57;4.95;;;-0.20;99.90;;;;;;5042408;28;20037;-66
2022/03/05 08:04:44;;;;;;;10.88;4.47;;;0.00;99.90;;;;;;5044284;28;20457;-66
2022/03/05 08:07:10;;;;;;;9.23;3.30;;;0.10;99.90;;;;;;5050783;28;20709;-66
2022/03/05 08:09:36;;;;;;;10.40;3.78;;;0.30;99.90;;;;;;5045580;28;20033;-67
2022/03/05 08:12:03;;;;;;;10.40;3.97;;;0.50;99.90;;;;;;5038604;28;20068;-66
2022/03/05 08:14:29;;;;;;;17.90;3.97;;;0.70;99.90;;;;;;5047382;28;20553;-67
2022/03/05 08:16:54;;;;;;;5.70;3.30;;;0.90;99.90;;;;;;5039894;28;20160;-66
2022/03/05 08:19:20;;;;;;;16.02;5.57;;;1.10;99.90;;;;;;5042584;28;20080;-67
2022/03/05 08:21:46;;;;;;;15.05;4.75;;;1.30;99.90;;;;;;5039885;28;20799;-67
2022/03/05 08:24:11;;;;;;;14.73;5.05;;;1.40;99.90;;;;;;5044183;28;20025;-66
2022/03/05 08:26:37;;;;;;;10.73;4.25;;;1.60;99.90;;;;;;5039697;28;20158;-67
2022/03/05 08:29:03;;;;;;;9.93;4.75;;;1.60;99.90;;;;;;5047449;28;20069;-67
2022/03/05 08:31:31;;;;;;;9.35;3.78;;;1.80;99.90;;;;;;5046493;28;20029;-68
2022/03/05 08:33:58;;;;;;;13.30;3.92;;;1.80;99.90;;;;;;5041321;28;20034;-67
2022/03/05 08:36:24;;;;;;;8.63;3.28;;;2.00;99.90;;;;;;5049520;28;20039;-67
2022/03/05 08:38:50;;;;;;;17.40;6.20;;;2.20;99.90;;;;;;5045225;28;20048;-67
2022/03/05 08:41:15;;;;;;;3.78;2.33;;;2.30;99.90;;;;;;5046308;28;20552;-67
2022/03/05 08:43:42;;;;;;;23.05;5.43;;;2.50;99.90;;;;;;5039483;28;20025;-67
2022/03/05 08:46:08;;;;;;;5.88;2.42;;;2.90;99.90;;;;;;5047530;28;20021;-66
2022/03/05 08:48:34;;;;;;;12.38;4.03;;;3.30;99.90;;;;;;5049218;28;20029;-67
2022/03/05 08:51:00;;;;;;;10.23;4.65;;;3.90;99.90;;;;;;5045511;28;20044;-67
2022/03/05 08:53:26;;;;;;;9.48;4.68;;;4.40;99.90;;;;;;5045849;28;20056;-67
2022/03/05 08:55:52;;;;;;;10.50;3.63;;;4.80;99.90;;;;;;5051151;28;20069;-67
2022/03/05 08:58:18;;;;;;;7.40;3.47;;;5.90;99.90;;;;;;5044970;28;20026;-68
2022/03/05 09:00:44;;;;;;;14.00;5.18;;;6.80;99.90;;;;;;5041668;28;20428;-68
2022/03/05 09:03:10;;;;;;;11.80;3.97;;;7.00;99.90;;;;;;5045339;28;20128;-68
2022/03/05 09:05:36;;;;;;;8.73;3.35;;;7.50;99.90;;;;;;5043412;28;20132;-68
2022/03/05 09:08:02;;;;;;;5.50;2.33;;;7.10;99.90;;;;;;5040877;28;20534;-68
2022/03/05 09:10:27;;;;;;;12.07;3.63;;;7.50;99.90;;;;;;5036189;28;20005;-68
2022/03/05 09:12:53;;;;;;;12.85;4.40;;;7.40;99.90;;;;;;5033599;28;20100;-68
2022/03/05 09:15:19;;;;;;;13.52;4.85;;;8.20;99.90;;;;;;5028528;28;20374;-68
2022/03/05 09:17:44;;;;;;;14.32;5.00;;;8.20;99.90;;;;;;5034186;28;20039;-68
2022/03/05 09:20:11;;;;;;;14.40;4.88;;;8.20;99.50;;;;;;5029241;28;20037;-68
2022/03/05 09:22:36;;;;;;;12.90;3.95;;;8.50;99.90;;;;;;5034257;28;20044;-68
2022/03/05 09:25:02;;;;;;;16.05;5.32;;;9.30;98.80;;;;;;5033882;28;20083;-68
2022/03/05 09:27:28;;;;;;;10.98;4.22;;;9.10;97.20;;;;;;5034086;28;20252;-68
2022/03/05 09:29:54;;;;;;;22.55;5.47;;;9.20;96.80;;;;;;5029846;28;20124;-68
2022/03/05 09:32:19;;;;;;;9.85;3.97;;;9.30;97.20;;;;;;5030525;28;20053;-68
2022/03/05 09:34:46;;;;;;;17.15;6.10;;;9.20;96.90;;;;;;5037469;28;20028;-68
2022/03/05 09:37:12;;;;;;;6.72;2.00;;;9.50;95.20;;;;;;5035768;28;20032;-68
2022/03/05 09:39:37;;;;;;;14.90;3.38;;;9.40;95.50;;;;;;5036086;28;20108;-68
2022/03/05 09:42:06;;;;;;;16.67;4.50;;;9.00;95.20;;;;;;5040835;28;20109;-68
2022/03/05 09:44:33;;;;;;;9.52;4.00;;;9.30;95.30;;;;;;5040515;28;20071;-68
2022/03/05 09:47:01;;;;;;;11.30;3.75;;;9.00;95.40;;;;;;5038384;28;20033;-68
2022/03/05 09:49:28;;;;;;;12.45;4.13;;;9.70;95.50;;;;;;5041806;28;20128;-68
2022/03/05 09:51:54;;;;;;;15.35;4.50;;;9.80;95.00;;;;;;5038029;28;20115;-68
2022/03/05 09:54:20;;;;;;;9.95;4.18;;;9.80;94.10;;;;;;5035755;28;20493;-68
2022/03/05 09:56:47;;;;;;;15.80;4.97;;;10.70;93.40;;;;;;5041794;28;20020;-68
2022/03/05 09:59:12;;;;;;;11.45;4.38;;;10.60;93.10;;;;;;5042244;28;20245;-68
2022/03/05 10:01:39;;;;;;;20.55;4.68;;;10.70;92.00;;;;;;5038685;28;20025;-67
2022/03/05 10:04:21;;;;;;;18.33;5.00;;;11.20;91.50;;;;;;5044613;28;20037;-67
2022/03/05 10:07:12;;;;;;;13.73;3.28;;;11.00;90.50;;;;;;5046021;28;20036;-67
2022/03/05 10:09:39;;;;;;;7.70;2.60;;;10.80;90.10;;;;;;5039796;28;20568;-67
2022/03/05 10:12:34;;;;;;;12.52;4.35;;;11.00;90.00;;;;;;5032355;28;20039;-67
2022/03/05 10:15:08;;;;;;;16.83;3.88;;;11.60;88.90;;;;;;5037383;28;20035;-67
2022/03/05 10:17:47;;;;;;;15.32;4.05;;;12.00;88.10;;;;;;5030053;28;20025;-67
2022/03/05 10:20:12;;;;;;;14.98;3.53;;;12.20;85.90;;;;;;5047805;28;20528;-67
2022/03/05 10:22:38;;;;;;;12.60;4.65;;;12.60;84.30;;;;;;5046092;28;20037;-67
2022/03/05 10:25:04;;;;;;;11.75;3.75;;;12.50;82.50;;;;;;5041250;28;20037;-67
2022/03/05 10:27:30;;;;;;;8.15;3.47;;;12.60;81.70;;;;;;5044393;28;20090;-67
2022/03/05 10:29:56;;;;;;;12.82;3.83;;;12.10;82.30;;;;;;5041105;28;20511;-67
2022/03/05 10:32:22;;;;;;;14.25;3.78;;;12.90;81.20;;;;;;5038514;28;20025;-67
2022/03/05 10:34:50;;;;;;;15.82;4.38;;;12.80;80.30;;;;;;5046512;28;20043;-67
2022/03/05 10:37:20;;;;;;;12.43;4.10;;;;;;;;;;5051985;28;20424;-67
2022/03/05 10:39:47;;;;;;;17.27;4.65;;;13.30;79.30;;;;;;5040165;28;20033;-67
2022/03/05 10:42:21;;;;;;;12.93;4.22;;;13.30;75.90;;;;;;5043954;28;20063;-67
2022/03/05 10:45:00;;;;;;;17.13;4.68;;;12.80;77.50;;;;;;5037476;28;20507;-68
2022/03/05 10:47:34;;;;;;;11.73;4.70;;;13.00;76.90;;;;;;5047975;28;20025;-67
2022/03/05 10:50:23;;;;;;;13.32;4.35;;;13.30;75.80;;;;;;5034699;28;20036;-67
2022/03/05 10:52:51;;;;;;;13.68;4.25;;;13.00;77.80;;;;;;5040833;28;20048;-67
2022/03/05 10:55:19;;;;;;;17.75;5.40;;;13.80;73.80;;;;;;5041991;28;20044;-67
2022/03/05 10:58:03;;;;;;;17.65;5.00;;;13.80;72.80;;;;;;5041722;28;20404;-67
2022/03/05 11:00:30;;;;;;;13.18;4.50;;;14.80;70.70;;;;;;5043340;28;20028;-67
2022/03/05 11:03:03;;;;;;;14.88;4.75;;;15.30;68.50;;;;;;5051477;28;20075;-67
2022/03/05 11:05:29;;;;;;;15.48;4.50;;;14.50;70.30;;;;;;5044934;28;20492;-67
2022/03/05 11:07:56;;;;;;;12.77;4.05;;;14.90;68.70;;;;;;5046960;28;20029;-67
2022/03/05 11:10:25;;;;;;;14.75;4.88;;;15.30;68.90;;;;;;5040610;28;20048;-68
2022/03/05 11:12:52;;;;;;;18.58;4.68;;;15.00;66.40;;;;;;5035656;28;20021;-68
2022/03/05 11:15:19;;;;;;;15.25;4.22;;;14.40;67.60;;;;;;5038312;28;20386;-68
2022/03/05 11:17:46;;;;;;;15.27;4.85;;;15.30;66.40;;;;;;5039152;28;20167;-68
2022/03/05 11:20:13;;;;;;;11.45;3.42;;;14.70;64.90;;;;;;5038321;28;20033;-68
2022/03/05 11:22:41;;;;;;;13.90;4.30;;;14.80;65.90;;;;;;5039633;28;20029;-67
2022/03/05 11:25:12;;;;;;;11.10;3.78;;;15.40;65.50;;;;;;5040163;28;20017;-67
2022/03/05 11:27:37;;;;;;;13.57;3.95;;;15.10;64.00;;;;;;5040845;28;20028;-68
2022/03/05 11:30:07;;;;;;;12.43;4.03;;;16.50;61.30;;;;;;5042684;28;20658;-69
2022/03/05 11:32:35;;;;;;;13.85;3.75;;;16.90;60.20;;;;;;5048962;28;20029;-68
2022/03/05 11:35:16;;;;;;;14.38;4.13;;;16.90;58.70;;;;;;5037294;28;20055;-68
2022/03/05 11:37:43;;;;;;;12.38;4.00;;;16.70;58.10;;;;;;5038935;28;20490;-68
2022/03/05 11:40:41;;;;;;;12.50;4.45;;;15.90;58.70;;;;;;5047515;28;20082;-68
2022/03/05 11:43:23;;;;;;;12.85;4.10;;;16.50;58.60;;;;;;5040364;28;20028;-68
2022/03/05 11:45:58;;;;;;;13.05;4.18;;;16.00;59.90;;;;;;5042452;28;20030;-68
2022/03/05 11:48:27;;;;;;;14.45;3.80;;;17.00;59.10;;;;;;5042998;28;20029;-68
2022/03/05 11:50:58;;;;;;;13.35;4.63;;;17.30;57.00;;;;;;5045350;28;20033;-68
2022/03/05 11:53:24;;;;;;;13.32;3.95;;;15.80;57.70;;;;;;5041396;28;20161;-68
2022/03/05 11:55:50;;;;;;;11.18;3.38;;;15.90;59.10;;;;;;5042932;28;20037;-68
2022/03/05 11:58:18;;;;;;;12.35;3.97;;;17.20;58.90;;;;;;5039725;28;20032;-68
2022/03/05 12:00:49;;;;;;;14.05;4.82;;;17.90;57.00;;;;;;5042282;28;20041;-68
2022/03/05 12:03:42;;;;;;;11.52;3.72;;;18.10;56.80;;;;;;5039414;28;20067;-68
2022/03/05 12:06:11;;;;;;;12.18;4.03;;;18.00;54.70;;;;;;5042789;28;20025;-68
2022/03/05 12:08:40;;;;;;;13.02;4.65;;;17.80;53.80;;;;;;5043449;28;20469;-68
2022/03/05 12:11:11;;;;;;;19.50;4.57;;;16.80;54.80;;;;;;5041690;28;20029;-68
2022/03/05 12:13:52;;;;;;;13.13;3.65;;;16.70;54.20;;;;;;5040238;28;20287;-68
2022/03/05 12:16:23;;;;;;;12.88;3.88;;;17.10;54.70;;;;;;5043554;28;20025;-68
2022/03/05 12:18:49;;;;;;;15.73;4.72;;;17.80;53.90;;;;;;5043190;28;20112;-68
2022/03/05 12:21:29;;;;;;;11.50;3.67;;;17.10;54.10;;;;;;5047478;28;20025;-68
2022/03/05 12:24:05;;;;;;;14.13;4.45;;;16.10;58.40;;;;;;5046284;28;20032;-68
2022/03/05 12:26:40;;;;;;;11.82;3.83;;;17.20;54.80;;;;;;5043213;28;20444;-68
2022/03/05 12:29:06;;;;;;;14.10;4.03;;;17.50;53.40;;;;;;5043096;28;20496;-68
2022/03/05 12:31:33;;;;;;;16.85;4.18;;;15.60;55.00;;;;;;5043843;28;20397;-68
2022/03/05 12:33:58;;;;;;;16.80;4.32;;;16.70;53.40;;;;;;5040413;28;20037;-68
2022/03/05 12:36:24;;;;;;;14.00;4.22;;;16.00;53.00;;;;;;5044173;28;20044;-68
2022/03/05 12:39:00;;;;;;;18.33;3.90;;;16.50;55.90;;;;;;5037064;28;20040;-68
2022/03/05 12:41:28;;;;;;;12.40;4.40;;;18.00;55.60;;;;;;5041213;28;20025;-68
2022/03/05 12:43:55;;;;;;;12.20;4.28;;;16.20;53.40;;;;;;5045948;28;20029;-68
2022/03/05 12:46:21;;;;;;;15.75;4.03;;;15.50;56.20;;;;;;5040945;28;20021;-68
2022/03/05 12:48:47;;;;;;;15.40;4.25;;;16.10;54.60;;;;;;5042623;28;20127;-68